sensor_id;sensor_type;location;lat;lon;timestamp;P1;durP1;ratioP1;P2;durP2;ratioP2
11139;SDS011;5624;49.388;11.350;2024-03-02T00:01:58;38.97;;;30.27;;
11139;SDS011;5624;49.388;11.350;2024-03-02T00:04:23;37.30;;;29.93;;
11139;SDS011;5624;49.388;11.350;2024-03-02T00:06:51;40.40;;;31.33;;
11139;SDS011;5624;49.388;11.350;2024-03-02T00:09:19;34.47;;;29.13;;
11139;SDS011;5624;49.388;11.350;2024-03-02T00:11:45;35.83;;;30.23;;
11139;SDS011;5624;49.388;11.350;2024-03-02T00:14:11;35.60;;;29.87;;
11139;SDS011;5624;49.388;11.350;2024-03-02T00:16:37;41.00;;;32.47;;
11139;SDS011;5624;49.388;11.350;2024-03-02T00:19:03;36.43;;;29.67;;
11139;SDS011;5624;49.388;11.350;2024-03-02T00:21:30;37.97;;;31.10;;
11139;SDS011;5624;49.388;11.350;2024-03-02T00:23:56;40.50;;;29.90;;
11139;SDS011;5624;49.388;11.350;2024-03-02T00:26:22;37.03;;;30.13;;
11139;SDS011;5624;49.388;11.350;2024-03-02T00:28:47;38.27;;;31.60;;
11139;SDS011;5624;49.388;11.350;2024-03-02T00:31:15;37.50;;;32.50;;
11139;SDS011;5624;49.388;11.350;2024-03-02T00:33:44;38.57;;;31.03;;
11139;SDS011;5624;49.388;11.350;2024-03-02T00:36:12;37.37;;;31.23;;
11139;SDS011;5624;49.388;11.350;2024-03-02T00:38:48;40.47;;;32.40;;
11139;SDS011;5624;49.388;11.350;2024-03-02T00:41:21;38.20;;;31.40;;
11139;SDS011;5624;49.388;11.350;2024-03-02T00:46:18;42.27;;;33.73;;
11139;SDS011;5624;49.388;11.350;2024-03-02T00:48:48;44.53;;;32.70;;
11139;SDS011;5624;49.388;11.350;2024-03-02T00:51:19;46.73;;;34.27;;
11139;SDS011;5624;49.388;11.350;2024-03-02T00:53:49;44.03;;;33.90;;
11139;SDS011;5624;49.388;11.350;2024-03-02T00:56:15;44.70;;;35.53;;
11139;SDS011;5624;49.388;11.350;2024-03-02T00:58:41;46.37;;;35.60;;
11139;SDS011;5624;49.388;11.350;2024-03-02T01:01:07;46.03;;;35.60;;
11139;SDS011;5624;49.388;11.350;2024-03-02T01:03:33;43.77;;;35.53;;
11139;SDS011;5624;49.388;11.350;2024-03-02T01:05:59;46.13;;;36.47;;
11139;SDS011;5624;49.388;11.350;2024-03-02T01:08:24;47.90;;;35.40;;
11139;SDS011;5624;49.388;11.350;2024-03-02T01:10:51;43.27;;;35.67;;
11139;SDS011;5624;49.388;11.350;2024-03-02T01:13:16;44.03;;;36.37;;
11139;SDS011;5624;49.388;11.350;2024-03-02T01:15:42;46.27;;;37.87;;
11139;SDS011;5624;49.388;11.350;2024-03-02T01:18:07;44.17;;;36.80;;
11139;SDS011;5624;49.388;11.350;2024-03-02T01:20:33;49.30;;;37.80;;
11139;SDS011;5624;49.388;11.350;2024-03-02T01:22:59;46.47;;;37.77;;
11139;SDS011;5624;49.388;11.350;2024-03-02T01:25:24;48.27;;;39.20;;
11139;SDS011;5624;49.388;11.350;2024-03-02T01:27:50;49.57;;;39.33;;
11139;SDS011;5624;49.388;11.350;2024-03-02T01:30:16;47.43;;;36.70;;
11139;SDS011;5624;49.388;11.350;2024-03-02T01:32:41;50.40;;;40.40;;
11139;SDS011;5624;49.388;11.350;2024-03-02T01:35:07;50.93;;;38.73;;
11139;SDS011;5624;49.388;11.350;2024-03-02T01:37:33;57.33;;;40.03;;
11139;SDS011;5624;49.388;11.350;2024-03-02T01:39:58;50.10;;;39.37;;
11139;SDS011;5624;49.388;11.350;2024-03-02T01:42:24;49.53;;;38.27;;
11139;SDS011;5624;49.388;11.350;2024-03-02T01:44:49;46.07;;;38.43;;
11139;SDS011;5624;49.388;11.350;2024-03-02T01:47:16;51.80;;;38.90;;
11139;SDS011;5624;49.388;11.350;2024-03-02T01:49:42;51.20;;;39.50;;
11139;SDS011;5624;49.388;11.350;2024-03-02T01:52:07;52.23;;;40.70;;
11139;SDS011;5624;49.388;11.350;2024-03-02T01:54:33;54.43;;;39.33;;
11139;SDS011;5624;49.388;11.350;2024-03-02T01:56:59;52.80;;;38.83;;
11139;SDS011;5624;49.388;11.350;2024-03-02T01:59:25;49.07;;;37.20;;
11139;SDS011;5624;49.388;11.350;2024-03-02T02:01:51;49.40;;;39.00;;
11139;SDS011;5624;49.388;11.350;2024-03-02T02:04:16;49.77;;;39.33;;
11139;SDS011;5624;49.388;11.350;2024-03-02T02:06:43;52.03;;;38.53;;
11139;SDS011;5624;49.388;11.350;2024-03-02T02:09:09;50.10;;;37.37;;
11139;SDS011;5624;49.388;11.350;2024-03-02T02:11:35;47.00;;;38.40;;
11139;SDS011;5624;49.388;11.350;2024-03-02T02:14:00;48.60;;;36.10;;
11139;SDS011;5624;49.388;11.350;2024-03-02T02:16:26;43.87;;;34.93;;
11139;SDS011;5624;49.388;11.350;2024-03-02T02:18:51;45.93;;;35.97;;
11139;SDS011;5624;49.388;11.350;2024-03-02T02:21:17;46.40;;;35.13;;
11139;SDS011;5624;49.388;11.350;2024-03-02T02:23:42;42.27;;;34.03;;
11139;SDS011;5624;49.388;11.350;2024-03-02T02:26:11;47.23;;;35.03;;
11139;SDS011;5624;49.388;11.350;2024-03-02T02:28:37;40.43;;;32.17;;
11139;SDS011;5624;49.388;11.350;2024-03-02T02:31:03;44.67;;;33.10;;
11139;SDS011;5624;49.388;11.350;2024-03-02T02:33:28;39.10;;;31.70;;
11139;SDS011;5624;49.388;11.350;2024-03-02T02:35:54;39.93;;;31.83;;
11139;SDS011;5624;49.388;11.350;2024-03-02T02:38:19;38.83;;;30.53;;
11139;SDS011;5624;49.388;11.350;2024-03-02T02:40:45;39.13;;;30.80;;
11139;SDS011;5624;49.388;11.350;2024-03-02T02:43:11;38.20;;;30.97;;
11139;SDS011;5624;49.388;11.350;2024-03-02T02:45:36;34.83;;;30.13;;
11139;SDS011;5624;49.388;11.350;2024-03-02T02:48:02;35.77;;;28.33;;
11139;SDS011;5624;49.388;11.350;2024-03-02T02:50:28;38.57;;;28.40;;
11139;SDS011;5624;49.388;11.350;2024-03-02T02:52:53;34.47;;;28.10;;
11139;SDS011;5624;49.388;11.350;2024-03-02T02:55:19;33.10;;;27.07;;
11139;SDS011;5624;49.388;11.350;2024-03-02T02:57:44;37.03;;;29.70;;
11139;SDS011;5624;49.388;11.350;2024-03-02T03:00:12;31.60;;;26.73;;
11139;SDS011;5624;49.388;11.350;2024-03-02T03:02:40;29.73;;;25.83;;
11139;SDS011;5624;49.388;11.350;2024-03-02T03:05:07;31.07;;;26.00;;
11139;SDS011;5624;49.388;11.350;2024-03-02T03:07:34;32.57;;;26.17;;
11139;SDS011;5624;49.388;11.350;2024-03-02T03:09:59;30.17;;;25.43;;
11139;SDS011;5624;49.388;11.350;2024-03-02T03:12:25;30.10;;;25.57;;
11139;SDS011;5624;49.388;11.350;2024-03-02T03:14:51;32.27;;;25.60;;
11139;SDS011;5624;49.388;11.350;2024-03-02T03:17:16;31.27;;;24.67;;
11139;SDS011;5624;49.388;11.350;2024-03-02T03:19:42;31.47;;;25.43;;
11139;SDS011;5624;49.388;11.350;2024-03-02T03:22:07;29.03;;;24.30;;
11139;SDS011;5624;49.388;11.350;2024-03-02T03:24:33;29.27;;;24.20;;
11139;SDS011;5624;49.388;11.350;2024-03-02T03:26:59;30.70;;;24.67;;
11139;SDS011;5624;49.388;11.350;2024-03-02T03:29:24;29.90;;;24.67;;
11139;SDS011;5624;49.388;11.350;2024-03-02T03:31:49;29.57;;;24.53;;
11139;SDS011;5624;49.388;11.350;2024-03-02T03:34:15;28.47;;;24.67;;
11139;SDS011;5624;49.388;11.350;2024-03-02T03:36:41;31.37;;;24.77;;
11139;SDS011;5624;49.388;11.350;2024-03-02T03:39:07;30.20;;;24.30;;
11139;SDS011;5624;49.388;11.350;2024-03-02T03:41:32;30.53;;;23.90;;
11139;SDS011;5624;49.388;11.350;2024-03-02T03:43:58;28.23;;;24.47;;
11139;SDS011;5624;49.388;11.350;2024-03-02T03:46:23;28.20;;;23.47;;
11139;SDS011;5624;49.388;11.350;2024-03-02T03:48:49;28.07;;;24.97;;
11139;SDS011;5624;49.388;11.350;2024-03-02T03:51:14;28.10;;;23.47;;
11139;SDS011;5624;49.388;11.350;2024-03-02T03:53:40;26.30;;;22.30;;
11139;SDS011;5624;49.388;11.350;2024-03-02T03:56:05;28.50;;;23.37;;
11139;SDS011;5624;49.388;11.350;2024-03-02T03:58:31;27.07;;;23.60;;
11139;SDS011;5624;49.388;11.350;2024-03-02T04:00:57;30.23;;;24.57;;
11139;SDS011;5624;49.388;11.350;2024-03-02T04:03:22;27.53;;;22.97;;
11139;SDS011;5624;49.388;11.350;2024-03-02T04:05:48;26.53;;;23.17;;
11139;SDS011;5624;49.388;11.350;2024-03-02T04:08:13;27.47;;;23.80;;
11139;SDS011;5624;49.388;11.350;2024-03-02T04:10:38;27.63;;;23.13;;
11139;SDS011;5624;49.388;11.350;2024-03-02T04:13:05;26.57;;;22.60;;
11139;SDS011;5624;49.388;11.350;2024-03-02T04:15:30;25.20;;;21.90;;
11139;SDS011;5624;49.388;11.350;2024-03-02T04:17:56;28.53;;;23.40;;
11139;SDS011;5624;49.388;11.350;2024-03-02T04:20:21;27.57;;;23.03;;
11139;SDS011;5624;49.388;11.350;2024-03-02T04:22:47;27.63;;;23.17;;
11139;SDS011;5624;49.388;11.350;2024-03-02T04:25:12;28.17;;;23.37;;
11139;SDS011;5624;49.388;11.350;2024-03-02T04:27:38;26.27;;;23.00;;
11139;SDS011;5624;49.388;11.350;2024-03-02T04:30:04;27.60;;;23.57;;
11139;SDS011;5624;49.388;11.350;2024-03-02T04:32:30;27.30;;;22.70;;
11139;SDS011;5624;49.388;11.350;2024-03-02T04:34:56;28.57;;;23.90;;
11139;SDS011;5624;49.388;11.350;2024-03-02T04:37:22;27.43;;;23.43;;
11139;SDS011;5624;49.388;11.350;2024-03-02T04:39:47;25.63;;;22.37;;
11139;SDS011;5624;49.388;11.350;2024-03-02T04:42:13;28.73;;;23.40;;
11139;SDS011;5624;49.388;11.350;2024-03-02T04:44:38;26.87;;;23.20;;
11139;SDS011;5624;49.388;11.350;2024-03-02T04:47:04;29.43;;;25.23;;
11139;SDS011;5624;49.388;11.350;2024-03-02T04:49:30;31.43;;;24.23;;
11139;SDS011;5624;49.388;11.350;2024-03-02T04:51:55;29.53;;;24.27;;
11139;SDS011;5624;49.388;11.350;2024-03-02T04:54:22;26.70;;;23.80;;
11139;SDS011;5624;49.388;11.350;2024-03-02T04:56:47;25.23;;;22.50;;
11139;SDS011;5624;49.388;11.350;2024-03-02T04:59:16;28.30;;;23.53;;
11139;SDS011;5624;49.388;11.350;2024-03-02T05:01:43;27.20;;;23.43;;
11139;SDS011;5624;49.388;11.350;2024-03-02T05:04:08;25.53;;;22.07;;
11139;SDS011;5624;49.388;11.350;2024-03-02T05:06:36;25.70;;;22.17;;
11139;SDS011;5624;49.388;11.350;2024-03-02T05:09:03;25.03;;;21.37;;
11139;SDS011;5624;49.388;11.350;2024-03-02T05:11:28;25.40;;;22.47;;
11139;SDS011;5624;49.388;11.350;2024-03-02T05:14:14;26.03;;;22.27;;
11139;SDS011;5624;49.388;11.350;2024-03-02T05:16:39;27.23;;;22.77;;
11139;SDS011;5624;49.388;11.350;2024-03-02T05:19:06;26.63;;;21.47;;
11139;SDS011;5624;49.388;11.350;2024-03-02T05:21:32;26.27;;;22.30;;
11139;SDS011;5624;49.388;11.350;2024-03-02T05:23:58;26.33;;;22.00;;
11139;SDS011;5624;49.388;11.350;2024-03-02T05:26:24;24.73;;;21.87;;
11139;SDS011;5624;49.388;11.350;2024-03-02T05:28:49;26.40;;;22.03;;
11139;SDS011;5624;49.388;11.350;2024-03-02T05:31:15;24.10;;;20.67;;
11139;SDS011;5624;49.388;11.350;2024-03-02T05:33:41;25.87;;;22.40;;
11139;SDS011;5624;49.388;11.350;2024-03-02T05:36:07;23.70;;;20.90;;
11139;SDS011;5624;49.388;11.350;2024-03-02T05:38:36;26.27;;;21.60;;
11139;SDS011;5624;49.388;11.350;2024-03-02T05:41:01;26.50;;;22.17;;
11139;SDS011;5624;49.388;11.350;2024-03-02T05:43:27;26.90;;;22.90;;
11139;SDS011;5624;49.388;11.350;2024-03-02T05:45:53;27.30;;;22.20;;
11139;SDS011;5624;49.388;11.350;2024-03-02T05:48:19;25.73;;;22.57;;
11139;SDS011;5624;49.388;11.350;2024-03-02T05:50:44;28.60;;;23.20;;
11139;SDS011;5624;49.388;11.350;2024-03-02T05:53:10;25.70;;;22.73;;
11139;SDS011;5624;49.388;11.350;2024-03-02T05:55:35;26.33;;;22.17;;
11139;SDS011;5624;49.388;11.350;2024-03-02T05:58:01;26.17;;;22.60;;
11139;SDS011;5624;49.388;11.350;2024-03-02T06:00:45;24.17;;;21.27;;
11139;SDS011;5624;49.388;11.350;2024-03-02T06:03:10;27.17;;;22.40;;
11139;SDS011;5624;49.388;11.350;2024-03-02T06:05:36;25.87;;;22.30;;
11139;SDS011;5624;49.388;11.350;2024-03-02T06:08:01;25.93;;;21.70;;
11139;SDS011;5624;49.388;11.350;2024-03-02T06:10:27;25.83;;;22.07;;
11139;SDS011;5624;49.388;11.350;2024-03-02T06:12:52;24.63;;;20.97;;
11139;SDS011;5624;49.388;11.350;2024-03-02T06:15:18;25.70;;;21.33;;
11139;SDS011;5624;49.388;11.350;2024-03-02T06:17:44;25.20;;;21.70;;
11139;SDS011;5624;49.388;11.350;2024-03-02T06:20:09;25.63;;;21.83;;
11139;SDS011;5624;49.388;11.350;2024-03-02T06:22:35;25.97;;;21.70;;
11139;SDS011;5624;49.388;11.350;2024-03-02T06:25:01;26.73;;;22.53;;
11139;SDS011;5624;49.388;11.350;2024-03-02T06:27:26;27.30;;;22.20;;
11139;SDS011;5624;49.388;11.350;2024-03-02T06:29:52;28.53;;;22.40;;
11139;SDS011;5624;49.388;11.350;2024-03-02T06:32:18;26.13;;;22.27;;
11139;SDS011;5624;49.388;11.350;2024-03-02T06:34:43;27.20;;;22.53;;
11139;SDS011;5624;49.388;11.350;2024-03-02T06:37:09;28.57;;;23.03;;
11139;SDS011;5624;49.388;11.350;2024-03-02T06:39:35;24.83;;;21.97;;
11139;SDS011;5624;49.388;11.350;2024-03-02T06:42:01;28.37;;;23.83;;
11139;SDS011;5624;49.388;11.350;2024-03-02T06:44:26;31.13;;;24.23;;
11139;SDS011;5624;49.388;11.350;2024-03-02T06:46:52;28.87;;;24.43;;
11139;SDS011;5624;49.388;11.350;2024-03-02T06:49:17;25.60;;;22.73;;
11139;SDS011;5624;49.388;11.350;2024-03-02T06:51:43;27.50;;;22.77;;
11139;SDS011;5624;49.388;11.350;2024-03-02T06:54:09;27.23;;;23.00;;
11139;SDS011;5624;49.388;11.350;2024-03-02T06:56:35;25.33;;;22.40;;
11139;SDS011;5624;49.388;11.350;2024-03-02T06:59:00;28.87;;;23.67;;
11139;SDS011;5624;49.388;11.350;2024-03-02T07:01:26;26.30;;;22.57;;
11139;SDS011;5624;49.388;11.350;2024-03-02T07:03:53;24.27;;;21.57;;
11139;SDS011;5624;49.388;11.350;2024-03-02T07:06:18;25.73;;;21.93;;
11139;SDS011;5624;49.388;11.350;2024-03-02T07:08:44;25.60;;;21.87;;
11139;SDS011;5624;49.388;11.350;2024-03-02T07:11:09;26.13;;;22.43;;
11139;SDS011;5624;49.388;11.350;2024-03-02T07:13:35;23.80;;;20.67;;
11139;SDS011;5624;49.388;11.350;2024-03-02T07:16:00;24.57;;;21.80;;
11139;SDS011;5624;49.388;11.350;2024-03-02T07:18:29;25.33;;;19.90;;
11139;SDS011;5624;49.388;11.350;2024-03-02T07:20:56;23.87;;;20.00;;
11139;SDS011;5624;49.388;11.350;2024-03-02T07:23:24;23.63;;;19.40;;
11139;SDS011;5624;49.388;11.350;2024-03-02T07:25:52;23.97;;;20.03;;
11139;SDS011;5624;49.388;11.350;2024-03-02T07:28:21;22.20;;;18.70;;
11139;SDS011;5624;49.388;11.350;2024-03-02T07:31:02;19.80;;;16.57;;
11139;SDS011;5624;49.388;11.350;2024-03-02T07:33:29;19.83;;;17.23;;
11139;SDS011;5624;49.388;11.350;2024-03-02T07:35:55;21.40;;;18.70;;
11139;SDS011;5624;49.388;11.350;2024-03-02T07:38:21;21.40;;;18.00;;
11139;SDS011;5624;49.388;11.350;2024-03-02T07:40:47;22.53;;;18.50;;
11139;SDS011;5624;49.388;11.350;2024-03-02T07:43:16;20.70;;;18.40;;
11139;SDS011;5624;49.388;11.350;2024-03-02T07:45:43;22.37;;;18.33;;
11139;SDS011;5624;49.388;11.350;2024-03-02T07:48:08;21.03;;;17.97;;
11139;SDS011;5624;49.388;11.350;2024-03-02T07:50:34;21.33;;;19.00;;
11139;SDS011;5624;49.388;11.350;2024-03-02T07:53:00;22.40;;;19.07;;
11139;SDS011;5624;49.388;11.350;2024-03-02T07:55:26;23.70;;;19.20;;
11139;SDS011;5624;49.388;11.350;2024-03-02T07:57:52;22.60;;;19.17;;
11139;SDS011;5624;49.388;11.350;2024-03-02T08:00:17;21.40;;;19.03;;
11139;SDS011;5624;49.388;11.350;2024-03-02T08:02:43;19.53;;;17.50;;
11139;SDS011;5624;49.388;11.350;2024-03-02T08:05:09;20.90;;;16.57;;
11139;SDS011;5624;49.388;11.350;2024-03-02T08:07:35;16.73;;;15.03;;
11139;SDS011;5624;49.388;11.350;2024-03-02T08:10:00;15.93;;;14.03;;
11139;SDS011;5624;49.388;11.350;2024-03-02T08:12:26;16.93;;;14.50;;
11139;SDS011;5624;49.388;11.350;2024-03-02T08:14:51;15.27;;;12.93;;
11139;SDS011;5624;49.388;11.350;2024-03-02T08:17:17;15.03;;;11.00;;
11139;SDS011;5624;49.388;11.350;2024-03-02T08:19:42;14.93;;;12.80;;
11139;SDS011;5624;49.388;11.350;2024-03-02T08:22:09;14.93;;;10.20;;
11139;SDS011;5624;49.388;11.350;2024-03-02T08:24:35;15.40;;;9.85;;
11139;SDS011;5624;49.388;11.350;2024-03-02T08:27:00;13.73;;;9.63;;
11139;SDS011;5624;49.388;11.350;2024-03-02T08:29:26;13.00;;;9.60;;
11139;SDS011;5624;49.388;11.350;2024-03-02T08:31:52;13.37;;;9.80;;
11139;SDS011;5624;49.388;11.350;2024-03-02T08:34:18;14.63;;;10.43;;
11139;SDS011;5624;49.388;11.350;2024-03-02T08:36:44;16.02;;;9.48;;
11139;SDS011;5624;49.388;11.350;2024-03-02T08:39:10;15.77;;;10.40;;
11139;SDS011;5624;49.388;11.350;2024-03-02T08:41:40;14.63;;;12.52;;
11139;SDS011;5624;49.388;11.350;2024-03-02T08:44:07;14.37;;;12.60;;
11139;SDS011;5624;49.388;11.350;2024-03-02T08:46:32;14.67;;;12.83;;
11139;SDS011;5624;49.388;11.350;2024-03-02T08:48:58;15.77;;;13.73;;
11139;SDS011;5624;49.388;11.350;2024-03-02T08:51:24;15.73;;;13.77;;
11139;SDS011;5624;49.388;11.350;2024-03-02T08:53:50;14.32;;;12.80;;
11139;SDS011;5624;49.388;11.350;2024-03-02T08:56:15;15.02;;;13.07;;
11139;SDS011;5624;49.388;11.350;2024-03-02T08:58:41;15.40;;;10.25;;
11139;SDS011;5624;49.388;11.350;2024-03-02T09:01:06;17.15;;;11.60;;
11139;SDS011;5624;49.388;11.350;2024-03-02T09:03:33;15.73;;;11.27;;
11139;SDS011;5624;49.388;11.350;2024-03-02T09:05:59;15.52;;;13.07;;
11139;SDS011;5624;49.388;11.350;2024-03-02T09:08:25;15.10;;;12.98;;
11139;SDS011;5624;49.388;11.350;2024-03-02T09:10:51;15.63;;;14.03;;
11139;SDS011;5624;49.388;11.350;2024-03-02T09:13:17;17.03;;;13.90;;
11139;SDS011;5624;49.388;11.350;2024-03-02T09:15:42;15.57;;;13.87;;
11139;SDS011;5624;49.388;11.350;2024-03-02T09:18:09;17.80;;;11.73;;
11139;SDS011;5624;49.388;11.350;2024-03-02T09:20:35;18.53;;;15.07;;
11139;SDS011;5624;49.388;11.350;2024-03-02T09:23:00;19.13;;;15.97;;
11139;SDS011;5624;49.388;11.350;2024-03-02T09:25:26;19.63;;;16.57;;
11139;SDS011;5624;49.388;11.350;2024-03-02T09:27:51;17.97;;;16.07;;
11139;SDS011;5624;49.388;11.350;2024-03-02T09:30:17;17.77;;;12.27;;
11139;SDS011;5624;49.388;11.350;2024-03-02T09:32:43;19.07;;;14.60;;
11139;SDS011;5624;49.388;11.350;2024-03-02T09:35:08;17.87;;;12.23;;
11139;SDS011;5624;49.388;11.350;2024-03-02T09:37:37;14.97;;;12.60;;
11139;SDS011;5624;49.388;11.350;2024-03-02T09:40:02;16.27;;;13.03;;
11139;SDS011;5624;49.388;11.350;2024-03-02T09:42:29;15.57;;;13.13;;
11139;SDS011;5624;49.388;11.350;2024-03-02T09:44:55;14.17;;;12.67;;
11139;SDS011;5624;49.388;11.350;2024-03-02T09:47:21;13.57;;;11.87;;
11139;SDS011;5624;49.388;11.350;2024-03-02T09:49:47;13.27;;;11.83;;
11139;SDS011;5624;49.388;11.350;2024-03-02T09:52:13;13.37;;;11.40;;
11139;SDS011;5624;49.388;11.350;2024-03-02T09:54:39;12.47;;;11.13;;
11139;SDS011;5624;49.388;11.350;2024-03-02T09:57:05;14.00;;;11.53;;
11139;SDS011;5624;49.388;11.350;2024-03-02T09:59:30;13.37;;;11.43;;
11139;SDS011;5624;49.388;11.350;2024-03-02T10:01:59;13.83;;;11.23;;
11139;SDS011;5624;49.388;11.350;2024-03-02T10:04:26;12.37;;;11.07;;
11139;SDS011;5624;49.388;11.350;2024-03-02T10:09:38;11.50;;;10.03;;
11139;SDS011;5624;49.388;11.350;2024-03-02T10:12:04;13.93;;;11.53;;
11139;SDS011;5624;49.388;11.350;2024-03-02T10:14:31;14.93;;;12.60;;
11139;SDS011;5624;49.388;11.350;2024-03-02T10:17:01;14.30;;;11.67;;
11139;SDS011;5624;49.388;11.350;2024-03-02T10:19:28;14.00;;;11.43;;
11139;SDS011;5624;49.388;11.350;2024-03-02T10:21:58;15.23;;;12.93;;
11139;SDS011;5624;49.388;11.350;2024-03-02T10:24:24;14.30;;;11.17;;
11139;SDS011;5624;49.388;11.350;2024-03-02T10:26:50;15.90;;;12.47;;
11139;SDS011;5624;49.388;11.350;2024-03-02T10:29:16;15.37;;;12.50;;
11139;SDS011;5624;49.388;11.350;2024-03-02T10:31:46;14.57;;;12.97;;
11139;SDS011;5624;49.388;11.350;2024-03-02T10:34:12;17.20;;;12.17;;
11139;SDS011;5624;49.388;11.350;2024-03-02T10:36:41;14.60;;;11.80;;
11139;SDS011;5624;49.388;11.350;2024-03-02T10:39:08;15.47;;;12.13;;
11139;SDS011;5624;49.388;11.350;2024-03-02T10:41:34;14.73;;;12.17;;
11139;SDS011;5624;49.388;11.350;2024-03-02T10:44:02;17.50;;;13.57;;
11139;SDS011;5624;49.388;11.350;2024-03-02T10:46:29;15.97;;;14.27;;
11139;SDS011;5624;49.388;11.350;2024-03-02T10:48:56;16.07;;;13.30;;
11139;SDS011;5624;49.388;11.350;2024-03-02T10:51:26;17.23;;;13.80;;
11139;SDS011;5624;49.388;11.350;2024-03-02T10:53:54;17.83;;;13.90;;
11139;SDS011;5624;49.388;11.350;2024-03-02T10:56:33;18.80;;;14.73;;
11139;SDS011;5624;49.388;11.350;2024-03-02T10:59:04;18.37;;;14.23;;
11139;SDS011;5624;49.388;11.350;2024-03-02T11:01:49;19.70;;;15.20;;
11139;SDS011;5624;49.388;11.350;2024-03-02T11:04:18;21.27;;;16.07;;
11139;SDS011;5624;49.388;11.350;2024-03-02T11:06:49;19.37;;;16.33;;
11139;SDS011;5624;49.388;11.350;2024-03-02T11:09:16;20.63;;;17.20;;
11139;SDS011;5624;49.388;11.350;2024-03-02T11:11:45;20.60;;;17.27;;
11139;SDS011;5624;49.388;11.350;2024-03-02T11:14:33;21.27;;;17.67;;
11139;SDS011;5624;49.388;11.350;2024-03-02T11:17:02;23.50;;;19.27;;
11139;SDS011;5624;49.388;11.350;2024-03-02T11:19:29;22.73;;;18.23;;
11139;SDS011;5624;49.388;11.350;2024-03-02T11:21:55;23.57;;;17.93;;
11139;SDS011;5624;49.388;11.350;2024-03-02T11:26:48;19.23;;;16.27;;
11139;SDS011;5624;49.388;11.350;2024-03-02T11:32:00;19.77;;;17.10;;
11139;SDS011;5624;49.388;11.350;2024-03-02T11:34:33;20.83;;;17.00;;
11139;SDS011;5624;49.388;11.350;2024-03-02T11:37:02;21.33;;;14.13;;
11139;SDS011;5624;49.388;11.350;2024-03-02T11:39:29;26.70;;;20.60;;
11139;SDS011;5624;49.388;11.350;2024-03-02T11:41:58;23.57;;;19.83;;
11139;SDS011;5624;49.388;11.350;2024-03-02T11:44:25;25.13;;;20.20;;
11139;SDS011;5624;49.388;11.350;2024-03-02T11:47:00;26.40;;;21.37;;
11139;SDS011;5624;49.388;11.350;2024-03-02T11:49:43;25.37;;;21.53;;
11139;SDS011;5624;49.388;11.350;2024-03-02T11:52:14;25.70;;;21.40;;
11139;SDS011;5624;49.388;11.350;2024-03-02T11:54:42;25.80;;;20.97;;
11139;SDS011;5624;49.388;11.350;2024-03-02T11:57:12;26.47;;;20.23;;
11139;SDS011;5624;49.388;11.350;2024-03-02T11:59:42;25.27;;;20.70;;
11139;SDS011;5624;49.388;11.350;2024-03-02T12:02:12;24.10;;;21.07;;
11139;SDS011;5624;49.388;11.350;2024-03-02T12:04:43;24.20;;;20.47;;
11139;SDS011;5624;49.388;11.350;2024-03-02T12:07:09;23.07;;;19.83;;
11139;SDS011;5624;49.388;11.350;2024-03-02T12:09:36;23.27;;;19.17;;
11139;SDS011;5624;49.388;11.350;2024-03-02T12:12:08;23.67;;;18.07;;
11139;SDS011;5624;49.388;11.350;2024-03-02T12:14:37;21.70;;;18.03;;
11139;SDS011;5624;49.388;11.350;2024-03-02T12:17:04;20.67;;;16.77;;
11139;SDS011;5624;49.388;11.350;2024-03-02T12:19:31;21.50;;;16.40;;
11139;SDS011;5624;49.388;11.350;2024-03-02T12:21:57;18.80;;;16.40;;
11139;SDS011;5624;49.388;11.350;2024-03-02T12:24:24;21.77;;;13.50;;
11139;SDS011;5624;49.388;11.350;2024-03-02T12:26:51;27.13;;;14.73;;
11139;SDS011;5624;49.388;11.350;2024-03-02T12:29:18;18.77;;;12.87;;
11139;SDS011;5624;49.388;11.350;2024-03-02T12:31:45;19.90;;;13.10;;
11139;SDS011;5624;49.388;11.350;2024-03-02T12:34:15;21.57;;;17.40;;
11139;SDS011;5624;49.388;11.350;2024-03-02T12:36:42;20.90;;;18.10;;
11139;SDS011;5624;49.388;11.350;2024-03-02T12:39:08;22.33;;;17.90;;
11139;SDS011;5624;49.388;11.350;2024-03-02T12:41:37;20.70;;;13.83;;
11139;SDS011;5624;49.388;11.350;2024-03-02T12:44:04;21.50;;;13.23;;
11139;SDS011;5624;49.388;11.350;2024-03-02T12:46:30;21.73;;;14.23;;
11139;SDS011;5624;49.388;11.350;2024-03-02T12:49:04;23.43;;;16.20;;
11139;SDS011;5624;49.388;11.350;2024-03-02T12:51:36;22.87;;;18.10;;
11139;SDS011;5624;49.388;11.350;2024-03-02T12:54:05;27.23;;;20.20;;
11139;SDS011;5624;49.388;11.350;2024-03-02T12:56:31;23.53;;;18.80;;
11139;SDS011;5624;49.388;11.350;2024-03-02T12:58:57;24.87;;;19.23;;
11139;SDS011;5624;49.388;11.350;2024-03-02T13:01:23;26.70;;;19.27;;
11139;SDS011;5624;49.388;11.350;2024-03-02T13:03:49;23.23;;;18.37;;
11139;SDS011;5624;49.388;11.350;2024-03-02T13:06:16;24.17;;;18.63;;
11139;SDS011;5624;49.388;11.350;2024-03-02T13:08:42;26.03;;;18.97;;
11139;SDS011;5624;49.388;11.350;2024-03-02T13:11:08;25.13;;;18.93;;
11139;SDS011;5624;49.388;11.350;2024-03-02T13:13:34;25.77;;;21.43;;
11139;SDS011;5624;49.388;11.350;2024-03-02T13:16:00;28.03;;;21.30;;
11139;SDS011;5624;49.388;11.350;2024-03-02T13:18:28;24.73;;;19.40;;
11139;SDS011;5624;49.388;11.350;2024-03-02T13:20:54;25.43;;;19.83;;
11139;SDS011;5624;49.388;11.350;2024-03-02T13:23:21;27.40;;;19.97;;
11139;SDS011;5624;49.388;11.350;2024-03-02T13:25:46;27.03;;;19.30;;
11139;SDS011;5624;49.388;11.350;2024-03-02T13:28:12;25.07;;;20.90;;
11139;SDS011;5624;49.388;11.350;2024-03-02T13:30:38;26.53;;;20.50;;
11139;SDS011;5624;49.388;11.350;2024-03-02T13:33:03;26.07;;;18.03;;
11139;SDS011;5624;49.388;11.350;2024-03-02T13:35:29;23.47;;;17.27;;
11139;SDS011;5624;49.388;11.350;2024-03-02T13:37:55;23.77;;;16.77;;
11139;SDS011;5624;49.388;11.350;2024-03-02T13:40:20;23.00;;;17.13;;
11139;SDS011;5624;49.388;11.350;2024-03-02T13:42:46;27.43;;;19.53;;
11139;SDS011;5624;49.388;11.350;2024-03-02T13:45:12;25.67;;;19.00;;
11139;SDS011;5624;49.388;11.350;2024-03-02T13:47:38;21.03;;;16.30;;
11139;SDS011;5624;49.388;11.350;2024-03-02T13:50:04;22.50;;;15.90;;
11139;SDS011;5624;49.388;11.350;2024-03-02T13:52:30;23.43;;;17.20;;
11139;SDS011;5624;49.388;11.350;2024-03-02T13:54:56;22.37;;;17.07;;
11139;SDS011;5624;49.388;11.350;2024-03-02T13:57:21;20.23;;;16.33;;
11139;SDS011;5624;49.388;11.350;2024-03-02T13:59:47;23.47;;;17.40;;
11139;SDS011;5624;49.388;11.350;2024-03-02T14:02:13;25.83;;;17.67;;
11139;SDS011;5624;49.388;11.350;2024-03-02T14:04:39;23.30;;;17.47;;
11139;SDS011;5624;49.388;11.350;2024-03-02T14:07:05;22.77;;;16.67;;
11139;SDS011;5624;49.388;11.350;2024-03-02T14:09:33;24.77;;;18.67;;
11139;SDS011;5624;49.388;11.350;2024-03-02T14:11:59;22.37;;;17.30;;
11139;SDS011;5624;49.388;11.350;2024-03-02T14:14:27;23.07;;;15.27;;
11139;SDS011;5624;49.388;11.350;2024-03-02T14:16:53;24.83;;;18.00;;
11139;SDS011;5624;49.388;11.350;2024-03-02T14:19:20;23.87;;;18.17;;
11139;SDS011;5624;49.388;11.350;2024-03-02T14:21:46;22.30;;;17.77;;
11139;SDS011;5624;49.388;11.350;2024-03-02T14:24:12;24.20;;;19.73;;
11139;SDS011;5624;49.388;11.350;2024-03-02T14:26:38;25.13;;;18.37;;
11139;SDS011;5624;49.388;11.350;2024-03-02T14:29:04;22.17;;;18.40;;